sensor_id;sensor_type;location;lat;lon;timestamp;P1;durP1;ratioP1;P2;durP2;ratioP2
11008;SDS011;5557;51.670;7.788;2023-04-01T00:01:26;2.27;;;1.23;;
11008;SDS011;5557;51.670;7.788;2023-04-01T00:03:53;1.97;;;1.07;;
11008;SDS011;5557;51.670;7.788;2023-04-01T00:06:21;2.23;;;1.07;;
11008;SDS011;5557;51.670;7.788;2023-04-01T00:08:48;5.90;;;1.10;;
11008;SDS011;5557;51.670;7.788;2023-04-01T00:11:16;2.50;;;0.90;;
11008;SDS011;5557;51.670;7.788;2023-04-01T00:13:46;1.20;;;0.60;;
11008;SDS011;5557;51.670;7.788;2023-04-01T00:16:13;0.90;;;0.70;;
11008;SDS011;5557;51.670;7.788;2023-04-01T00:18:47;1.97;;;1.00;;
11008;SDS011;5557;51.670;7.788;2023-04-01T00:21:15;5.93;;;0.60;;
11008;SDS011;5557;51.670;7.788;2023-04-01T00:23:42;1.37;;;0.80;;
11008;SDS011;5557;51.670;7.788;2023-04-01T00:26:10;2.10;;;0.70;;
11008;SDS011;5557;51.670;7.788;2023-04-01T00:28:38;1.60;;;0.60;;
11008;SDS011;5557;51.670;7.788;2023-04-01T00:31:07;6.53;;;0.70;;
11008;SDS011;5557;51.670;7.788;2023-04-01T00:33:35;2.53;;;0.80;;
11008;SDS011;5557;51.670;7.788;2023-04-01T00:36:12;2.17;;;1.00;;
11008;SDS011;5557;51.670;7.788;2023-04-01T00:38:41;1.37;;;0.80;;
11008;SDS011;5557;51.670;7.788;2023-04-01T00:41:09;0.90;;;0.53;;
11008;SDS011;5557;51.670;7.788;2023-04-01T00:43:41;2.13;;;1.03;;
11008;SDS011;5557;51.670;7.788;2023-04-01T00:46:13;1.43;;;0.73;;
11008;SDS011;5557;51.670;7.788;2023-04-01T00:48:45;1.43;;;0.70;;
11008;SDS011;5557;51.670;7.788;2023-04-01T00:51:22;2.50;;;0.73;;
11008;SDS011;5557;51.670;7.788;2023-04-01T00:53:52;1.00;;;0.87;;
11008;SDS011;5557;51.670;7.788;2023-04-01T00:56:22;1.13;;;0.73;;
11008;SDS011;5557;51.670;7.788;2023-04-01T01:01:56;4.07;;;0.80;;
11008;SDS011;5557;51.670;7.788;2023-04-01T01:04:28;1.40;;;1.30;;
11008;SDS011;5557;51.670;7.788;2023-04-01T01:09:40;0.90;;;0.60;;
11008;SDS011;5557;51.670;7.788;2023-04-01T01:12:22;2.33;;;0.97;;
11008;SDS011;5557;51.670;7.788;2023-04-01T01:15:06;2.13;;;0.93;;
11008;SDS011;5557;51.670;7.788;2023-04-01T01:20:48;2.00;;;0.93;;
11008;SDS011;5557;51.670;7.788;2023-04-01T01:27:12;1.43;;;0.90;;
11008;SDS011;5557;51.670;7.788;2023-04-01T01:33:08;0.80;;;0.60;;
11008;SDS011;5557;51.670;7.788;2023-04-01T01:35:49;1.37;;;0.70;;
11008;SDS011;5557;51.670;7.788;2023-04-01T01:38:22;1.67;;;0.80;;
11008;SDS011;5557;51.670;7.788;2023-04-01T01:40:52;1.43;;;0.80;;
11008;SDS011;5557;51.670;7.788;2023-04-01T01:43:24;1.53;;;0.90;;
11008;SDS011;5557;51.670;7.788;2023-04-01T01:45:56;2.50;;;0.80;;
11008;SDS011;5557;51.670;7.788;2023-04-01T01:48:26;2.67;;;0.70;;
11008;SDS011;5557;51.670;7.788;2023-04-01T01:50:55;1.33;;;0.67;;
11008;SDS011;5557;51.670;7.788;2023-04-01T01:53:23;2.03;;;0.83;;
11008;SDS011;5557;51.670;7.788;2023-04-01T01:55:50;0.90;;;0.70;;
11008;SDS011;5557;51.670;7.788;2023-04-01T01:58:28;1.27;;;0.70;;
11008;SDS011;5557;51.670;7.788;2023-04-01T02:00:59;1.03;;;0.83;;
11008;SDS011;5557;51.670;7.788;2023-04-01T02:03:31;2.23;;;0.70;;
11008;SDS011;5557;51.670;7.788;2023-04-01T02:06:02;0.80;;;0.77;;
11008;SDS011;5557;51.670;7.788;2023-04-01T02:08:42;0.80;;;0.70;;
11008;SDS011;5557;51.670;7.788;2023-04-01T02:11:16;2.37;;;0.80;;
11008;SDS011;5557;51.670;7.788;2023-04-01T02:14:05;1.30;;;0.83;;
11008;SDS011;5557;51.670;7.788;2023-04-01T02:16:51;1.20;;;0.90;;
11008;SDS011;5557;51.670;7.788;2023-04-01T02:20:02;0.70;;;0.60;;
11008;SDS011;5557;51.670;7.788;2023-04-01T02:22:37;0.70;;;0.60;;
11008;SDS011;5557;51.670;7.788;2023-04-01T02:25:09;0.80;;;0.60;;
11008;SDS011;5557;51.670;7.788;2023-04-01T02:27:39;1.67;;;0.90;;
11008;SDS011;5557;51.670;7.788;2023-04-01T02:30:09;1.37;;;0.80;;
11008;SDS011;5557;51.670;7.788;2023-04-01T02:32:39;2.30;;;0.80;;
11008;SDS011;5557;51.670;7.788;2023-04-01T02:35:07;0.80;;;0.70;;
11008;SDS011;5557;51.670;7.788;2023-04-01T02:37:38;1.37;;;0.70;;
11008;SDS011;5557;51.670;7.788;2023-04-01T02:40:09;0.90;;;0.80;;
11008;SDS011;5557;51.670;7.788;2023-04-01T02:42:39;1.13;;;0.87;;
11008;SDS011;5557;51.670;7.788;2023-04-01T02:45:06;0.97;;;0.80;;
11008;SDS011;5557;51.670;7.788;2023-04-01T02:47:34;1.47;;;0.80;;
11008;SDS011;5557;51.670;7.788;2023-04-01T02:50:01;1.73;;;0.70;;
11008;SDS011;5557;51.670;7.788;2023-04-01T02:52:29;0.73;;;0.53;;
11008;SDS011;5557;51.670;7.788;2023-04-01T02:54:56;1.63;;;0.90;;
11008;SDS011;5557;51.670;7.788;2023-04-01T02:57:24;0.80;;;0.70;;
11008;SDS011;5557;51.670;7.788;2023-04-01T02:59:51;0.90;;;0.80;;
11008;SDS011;5557;51.670;7.788;2023-04-01T03:02:18;1.43;;;0.60;;
11008;SDS011;5557;51.670;7.788;2023-04-01T03:04:45;1.77;;;0.73;;
11008;SDS011;5557;51.670;7.788;2023-04-01T03:07:12;2.60;;;0.70;;
11008;SDS011;5557;51.670;7.788;2023-04-01T03:09:39;1.00;;;0.60;;
11008;SDS011;5557;51.670;7.788;2023-04-01T03:12:06;1.03;;;0.80;;
11008;SDS011;5557;51.670;7.788;2023-04-01T03:14:34;1.20;;;0.57;;
11008;SDS011;5557;51.670;7.788;2023-04-01T03:17:00;0.80;;;0.60;;
11008;SDS011;5557;51.670;7.788;2023-04-01T03:19:28;0.80;;;0.60;;
11008;SDS011;5557;51.670;7.788;2023-04-01T03:21:55;1.50;;;0.60;;
11008;SDS011;5557;51.670;7.788;2023-04-01T03:24:22;0.80;;;0.67;;
11008;SDS011;5557;51.670;7.788;2023-04-01T03:26:49;1.00;;;0.70;;
11008;SDS011;5557;51.670;7.788;2023-04-01T03:29:15;1.67;;;0.67;;
11008;SDS011;5557;51.670;7.788;2023-04-01T03:31:42;1.03;;;0.53;;
11008;SDS011;5557;51.670;7.788;2023-04-01T03:34:10;0.80;;;0.60;;
11008;SDS011;5557;51.670;7.788;2023-04-01T03:36:37;1.70;;;0.83;;
11008;SDS011;5557;51.670;7.788;2023-04-01T03:39:04;0.80;;;0.60;;
11008;SDS011;5557;51.670;7.788;2023-04-01T03:41:32;3.23;;;1.83;;
11008;SDS011;5557;51.670;7.788;2023-04-01T03:43:59;0.90;;;0.80;;
11008;SDS011;5557;51.670;7.788;2023-04-01T03:46:26;0.80;;;0.67;;
11008;SDS011;5557;51.670;7.788;2023-04-01T03:48:53;0.90;;;0.73;;
11008;SDS011;5557;51.670;7.788;2023-04-01T03:51:20;1.30;;;0.57;;
11008;SDS011;5557;51.670;7.788;2023-04-01T03:53:48;1.10;;;0.60;;
11008;SDS011;5557;51.670;7.788;2023-04-01T03:56:15;0.70;;;0.60;;
11008;SDS011;5557;51.670;7.788;2023-04-01T03:58:42;0.70;;;0.50;;
11008;SDS011;5557;51.670;7.788;2023-04-01T04:01:13;0.70;;;0.50;;
11008;SDS011;5557;51.670;7.788;2023-04-01T04:03:47;1.57;;;0.53;;
11008;SDS011;5557;51.670;7.788;2023-04-01T04:06:16;0.90;;;0.60;;
11008;SDS011;5557;51.670;7.788;2023-04-01T04:08:44;1.00;;;0.63;;
11008;SDS011;5557;51.670;7.788;2023-04-01T04:11:12;1.17;;;1.17;;
11008;SDS011;5557;51.670;7.788;2023-04-01T04:13:40;0.70;;;0.60;;
11008;SDS011;5557;51.670;7.788;2023-04-01T04:16:08;1.37;;;0.70;;
11008;SDS011;5557;51.670;7.788;2023-04-01T04:18:36;1.00;;;0.70;;
11008;SDS011;5557;51.670;7.788;2023-04-01T04:21:04;1.03;;;0.70;;
11008;SDS011;5557;51.670;7.788;2023-04-01T04:23:32;2.87;;;1.60;;
11008;SDS011;5557;51.670;7.788;2023-04-01T04:28:39;2.77;;;0.57;;
11008;SDS011;5557;51.670;7.788;2023-04-01T04:31:07;0.70;;;0.50;;
11008;SDS011;5557;51.670;7.788;2023-04-01T04:33:34;0.80;;;0.70;;
11008;SDS011;5557;51.670;7.788;2023-04-01T04:36:03;1.03;;;0.90;;
11008;SDS011;5557;51.670;7.788;2023-04-01T04:38:31;1.43;;;0.60;;
11008;SDS011;5557;51.670;7.788;2023-04-01T04:40:58;0.80;;;0.80;;
11008;SDS011;5557;51.670;7.788;2023-04-01T04:43:24;0.70;;;0.50;;
11008;SDS011;5557;51.670;7.788;2023-04-01T04:45:51;1.90;;;0.80;;
11008;SDS011;5557;51.670;7.788;2023-04-01T04:48:18;0.70;;;0.60;;
11008;SDS011;5557;51.670;7.788;2023-04-01T04:50:47;0.80;;;0.80;;
11008;SDS011;5557;51.670;7.788;2023-04-01T04:53:15;1.87;;;0.77;;
11008;SDS011;5557;51.670;7.788;2023-04-01T04:55:44;0.80;;;0.80;;
11008;SDS011;5557;51.670;7.788;2023-04-01T04:58:12;0.80;;;0.70;;
11008;SDS011;5557;51.670;7.788;2023-04-01T05:00:39;0.70;;;0.70;;
11008;SDS011;5557;51.670;7.788;2023-04-01T05:03:06;0.80;;;0.70;;
11008;SDS011;5557;51.670;7.788;2023-04-01T05:05:33;0.70;;;0.60;;
11008;SDS011;5557;51.670;7.788;2023-04-01T05:08:01;0.90;;;0.60;;
11008;SDS011;5557;51.670;7.788;2023-04-01T05:10:28;0.70;;;0.60;;
11008;SDS011;5557;51.670;7.788;2023-04-01T05:12:55;0.80;;;0.60;;
11008;SDS011;5557;51.670;7.788;2023-04-01T05:15:22;1.23;;;1.07;;
11008;SDS011;5557;51.670;7.788;2023-04-01T05:17:50;1.10;;;1.00;;
11008;SDS011;5557;51.670;7.788;2023-04-01T05:20:17;4.03;;;1.10;;
11008;SDS011;5557;51.670;7.788;2023-04-01T05:22:44;2.70;;;1.10;;
11008;SDS011;5557;51.670;7.788;2023-04-01T05:25:11;1.47;;;1.37;;
11008;SDS011;5557;51.670;7.788;2023-04-01T05:27:38;1.60;;;1.50;;
11008;SDS011;5557;51.670;7.788;2023-04-01T05:30:05;1.93;;;1.67;;
11008;SDS011;5557;51.670;7.788;2023-04-01T05:32:33;1.20;;;1.10;;
11008;SDS011;5557;51.670;7.788;2023-04-01T05:35:01;1.20;;;1.10;;
11008;SDS011;5557;51.670;7.788;2023-04-01T05:37:28;2.80;;;1.17;;
11008;SDS011;5557;51.670;7.788;2023-04-01T05:39:54;1.13;;;1.13;;
11008;SDS011;5557;51.670;7.788;2023-04-01T05:42:21;2.33;;;1.47;;
11008;SDS011;5557;51.670;7.788;2023-04-01T05:44:48;1.60;;;1.43;;
11008;SDS011;5557;51.670;7.788;2023-04-01T05:47:15;4.10;;;1.70;;
11008;SDS011;5557;51.670;7.788;2023-04-01T05:49:42;1.50;;;1.40;;
11008;SDS011;5557;51.670;7.788;2023-04-01T05:52:09;2.10;;;2.00;;
11008;SDS011;5557;51.670;7.788;2023-04-01T05:54:36;1.17;;;1.07;;
11008;SDS011;5557;51.670;7.788;2023-04-01T05:57:03;1.80;;;1.70;;
11008;SDS011;5557;51.670;7.788;2023-04-01T05:59:30;1.57;;;1.47;;
11008;SDS011;5557;51.670;7.788;2023-04-01T06:01:57;1.30;;;1.20;;
11008;SDS011;5557;51.670;7.788;2023-04-01T06:04:26;2.80;;;1.33;;
11008;SDS011;5557;51.670;7.788;2023-04-01T06:06:59;1.80;;;1.70;;
11008;SDS011;5557;51.670;7.788;2023-04-01T06:09:27;1.87;;;1.77;;
11008;SDS011;5557;51.670;7.788;2023-04-01T06:12:34;1.40;;;1.30;;
11008;SDS011;5557;51.670;7.788;2023-04-01T06:24:23;1.40;;;1.30;;
11008;SDS011;5557;51.670;7.788;2023-04-01T06:27:30;1.30;;;1.10;;
11008;SDS011;5557;51.670;7.788;2023-04-01T06:46:12;1.40;;;1.30;;
11008;SDS011;5557;51.670;7.788;2023-04-01T06:52:16;2.33;;;2.23;;
11008;SDS011;5557;51.670;7.788;2023-04-01T06:55:00;1.40;;;1.30;;
11008;SDS011;5557;51.670;7.788;2023-04-01T06:57:49;2.40;;;1.20;;
11008;SDS011;5557;51.670;7.788;2023-04-01T07:03:26;1.17;;;1.17;;
11008;SDS011;5557;51.670;7.788;2023-04-01T07:06:05;1.70;;;1.60;;
11008;SDS011;5557;51.670;7.788;2023-04-01T07:08:36;1.33;;;1.23;;
11008;SDS011;5557;51.670;7.788;2023-04-01T07:11:06;1.20;;;1.10;;
11008;SDS011;5557;51.670;7.788;2023-04-01T07:16:13;1.30;;;1.20;;
11008;SDS011;5557;51.670;7.788;2023-04-01T07:18:51;1.20;;;1.10;;
11008;SDS011;5557;51.670;7.788;2023-04-01T07:21:49;1.53;;;1.43;;
11008;SDS011;5557;51.670;7.788;2023-04-01T07:24:26;1.40;;;1.30;;
11008;SDS011;5557;51.670;7.788;2023-04-01T07:26:58;1.07;;;1.00;;
11008;SDS011;5557;51.670;7.788;2023-04-01T07:29:25;0.90;;;0.90;;
11008;SDS011;5557;51.670;7.788;2023-04-01T07:34:53;0.80;;;0.77;;
11008;SDS011;5557;51.670;7.788;2023-04-01T07:40:28;1.60;;;1.00;;
11008;SDS011;5557;51.670;7.788;2023-04-01T07:49:17;1.07;;;0.80;;
11008;SDS011;5557;51.670;7.788;2023-04-01T07:52:01;1.73;;;1.23;;
11008;SDS011;5557;51.670;7.788;2023-04-01T07:54:59;1.20;;;0.90;;
11008;SDS011;5557;51.670;7.788;2023-04-01T07:57:36;1.00;;;1.00;;
11008;SDS011;5557;51.670;7.788;2023-04-01T08:00:33;0.97;;;0.87;;
11008;SDS011;5557;51.670;7.788;2023-04-01T08:06:14;0.80;;;0.80;;
11008;SDS011;5557;51.670;7.788;2023-04-01T08:09:18;0.93;;;0.87;;
11008;SDS011;5557;51.670;7.788;2023-04-01T08:15:53;0.93;;;0.93;;
11008;SDS011;5557;51.670;7.788;2023-04-01T08:21:51;0.77;;;0.77;;
11008;SDS011;5557;51.670;7.788;2023-04-01T08:24:24;1.20;;;0.90;;
11008;SDS011;5557;51.670;7.788;2023-04-01T08:26:51;7.17;;;0.90;;
11008;SDS011;5557;51.670;7.788;2023-04-01T08:29:23;1.20;;;1.10;;
11008;SDS011;5557;51.670;7.788;2023-04-01T08:32:06;1.67;;;1.10;;
11008;SDS011;5557;51.670;7.788;2023-04-01T08:34:38;0.97;;;0.93;;
11008;SDS011;5557;51.670;7.788;2023-04-01T08:37:15;0.97;;;0.90;;
11008;SDS011;5557;51.670;7.788;2023-04-01T08:39:47;4.13;;;0.93;;
11008;SDS011;5557;51.670;7.788;2023-04-01T08:42:31;0.97;;;0.90;;
11008;SDS011;5557;51.670;7.788;2023-04-01T08:57:59;1.07;;;0.93;;
11008;SDS011;5557;51.670;7.788;2023-04-01T09:01:10;3.90;;;0.90;;
11008;SDS011;5557;51.670;7.788;2023-04-01T09:07:20;1.57;;;1.30;;
11008;SDS011;5557;51.670;7.788;2023-04-01T09:13:42;1.43;;;1.03;;
11008;SDS011;5557;51.670;7.788;2023-04-01T09:29:16;1.30;;;1.20;;
11008;SDS011;5557;51.670;7.788;2023-04-01T09:35:22;1.17;;;1.07;;
11008;SDS011;5557;51.670;7.788;2023-04-01T09:41:46;1.10;;;1.10;;
11008;SDS011;5557;51.670;7.788;2023-04-01T09:44:48;1.00;;;1.00;;
11008;SDS011;5557;51.670;7.788;2023-04-01T09:47:49;1.20;;;1.10;;
11008;SDS011;5557;51.670;7.788;2023-04-01T10:00:39;1.13;;;1.03;;
11008;SDS011;5557;51.670;7.788;2023-04-01T10:05:22;1.30;;;1.20;;
11008;SDS011;5557;51.670;7.788;2023-04-01T10:22:00;2.10;;;2.00;;
11008;SDS011;5557;51.670;7.788;2023-04-01T10:24:53;2.70;;;2.60;;
11008;SDS011;5557;51.670;7.788;2023-04-01T10:27:49;2.40;;;2.30;;
11008;SDS011;5557;51.670;7.788;2023-04-01T10:34:05;2.00;;;1.90;;
11008;SDS011;5557;51.670;7.788;2023-04-01T10:36:55;2.00;;;1.90;;
11008;SDS011;5557;51.670;7.788;2023-04-01T10:57:21;2.60;;;2.50;;
11008;SDS011;5557;51.670;7.788;2023-04-01T11:00:18;2.80;;;2.70;;
11008;SDS011;5557;51.670;7.788;2023-04-01T11:06:19;3.30;;;3.20;;
11008;SDS011;5557;51.670;7.788;2023-04-01T11:16:33;3.70;;;3.50;;
11008;SDS011;5557;51.670;7.788;2023-04-01T11:39:44;4.50;;;4.30;;
11008;SDS011;5557;51.670;7.788;2023-04-01T11:42:56;4.57;;;4.37;;
11008;SDS011;5557;51.670;7.788;2023-04-01T11:51:51;3.90;;;3.80;;
11008;SDS011;5557;51.670;7.788;2023-04-01T12:00:46;3.73;;;3.53;;
11008;SDS011;5557;51.670;7.788;2023-04-01T12:03:40;4.20;;;4.10;;
11008;SDS011;5557;51.670;7.788;2023-04-01T12:12:51;3.27;;;3.10;;
11008;SDS011;5557;51.670;7.788;2023-04-01T12:18:55;3.23;;;3.13;;
11008;SDS011;5557;51.670;7.788;2023-04-01T12:21:37;3.77;;;3.50;;
11008;SDS011;5557;51.670;7.788;2023-04-01T12:24:20;3.30;;;3.20;;
11008;SDS011;5557;51.670;7.788;2023-04-01T12:27:31;3.73;;;3.57;;
11008;SDS011;5557;51.670;7.788;2023-04-01T12:30:25;3.00;;;2.80;;
11008;SDS011;5557;51.670;7.788;2023-04-01T12:36:37;2.70;;;2.60;;
11008;SDS011;5557;51.670;7.788;2023-04-01T12:40:15;2.87;;;2.77;;
11008;SDS011;5557;51.670;7.788;2023-04-01T12:42:36;2.67;;;2.57;;
11008;SDS011;5557;51.670;7.788;2023-04-01T12:48:12;2.20;;;2.10;;
11008;SDS011;5557;51.670;7.788;2023-04-01T12:51:05;2.40;;;2.30;;
11008;SDS011;5557;51.670;7.788;2023-04-01T12:57:05;2.70;;;2.60;;
11008;SDS011;5557;51.670;7.788;2023-04-01T13:03:01;3.57;;;3.47;;
11008;SDS011;5557;51.670;7.788;2023-04-01T13:15:52;3.90;;;3.70;;
11008;SDS011;5557;51.670;7.788;2023-04-01T13:24:18;4.40;;;4.30;;
11008;SDS011;5557;51.670;7.788;2023-04-01T13:27:21;3.20;;;2.93;;
11008;SDS011;5557;51.670;7.788;2023-04-01T13:32:30;3.70;;;3.60;;
11008;SDS011;5557;51.670;7.788;2023-04-01T13:35:02;3.97;;;3.77;;
11008;SDS011;5557;51.670;7.788;2023-04-01T13:43:43;3.50;;;3.30;;
11008;SDS011;5557;51.670;7.788;2023-04-01T13:46:49;3.83;;;3.43;;
11008;SDS011;5557;51.670;7.788;2023-04-01T13:52:50;4.33;;;4.00;;
11008;SDS011;5557;51.670;7.788;2023-04-01T13:55:49;4.10;;;3.90;;
11008;SDS011;5557;51.670;7.788;2023-04-01T14:14:33;4.50;;;4.40;;
11008;SDS011;5557;51.670;7.788;2023-04-01T14:24:22;4.40;;;4.20;;
11008;SDS011;5557;51.670;7.788;2023-04-01T14:26:35;4.60;;;4.30;;
11008;SDS011;5557;51.670;7.788;2023-04-01T14:36:46;5.00;;;4.70;;
11008;SDS011;5557;51.670;7.788;2023-04-01T14:51:18;5.20;;;4.80;;
11008;SDS011;5557;51.670;7.788;2023-04-01T14:59:53;4.60;;;4.40;;
11008;SDS011;5557;51.670;7.788;2023-04-01T15:02:57;4.80;;;4.60;;
11008;SDS011;5557;51.670;7.788;2023-04-01T15:17:20;4.00;;;3.70;;
11008;SDS011;5557;51.670;7.788;2023-04-01T15:23:21;5.20;;;4.90;;
11008;SDS011;5557;51.670;7.788;2023-04-01T15:26:08;5.47;;;5.17;;
11008;SDS011;5557;51.670;7.788;2023-04-01T15:28:51;5.20;;;4.80;;
11008;SDS011;5557;51.670;7.788;2023-04-01T15:32:39;5.97;;;5.03;;
11008;SDS011;5557;51.670;7.788;2023-04-01T15:38:02;5.27;;;4.97;;
11008;SDS011;5557;51.670;7.788;2023-04-01T15:40:59;4.77;;;4.50;;
11008;SDS011;5557;51.670;7.788;2023-04-01T15:43:48;5.87;;;5.57;;
11008;SDS011;5557;51.670;7.788;2023-04-01T15:49:15;5.83;;;5.47;;
11008;SDS011;5557;51.670;7.788;2023-04-01T16:01:42;7.47;;;6.90;;
11008;SDS011;5557;51.670;7.788;2023-04-01T16:07:52;8.50;;;8.00;;
11008;SDS011;5557;51.670;7.788;2023-04-01T16:10:57;7.90;;;7.40;;
11008;SDS011;5557;51.670;7.788;2023-04-01T16:13:49;10.17;;;9.37;;
11008;SDS011;5557;51.670;7.788;2023-04-01T16:16:42;11.87;;;10.80;;
11008;SDS011;5557;51.670;7.788;2023-04-01T16:19:52;11.30;;;10.30;;
11008;SDS011;5557;51.670;7.788;2023-04-01T16:22:49;11.93;;;10.97;;
11008;SDS011;5557;51.670;7.788;2023-04-01T16:25:39;12.53;;;11.23;;
11008;SDS011;5557;51.670;7.788;2023-04-01T16:28:33;11.50;;;10.60;;
11008;SDS011;5557;51.670;7.788;2023-04-01T16:32:31;12.10;;;11.10;;
11008;SDS011;5557;51.670;7.788;2023-04-01T16:34:10;12.63;;;11.63;;
11008;SDS011;5557;51.670;7.788;2023-04-01T16:36:54;14.53;;;13.13;;
11008;SDS011;5557;51.670;7.788;2023-04-01T16:42:19;13.83;;;12.37;;
11008;SDS011;5557;51.670;7.788;2023-04-01T16:47:53;18.43;;;14.30;;
11008;SDS011;5557;51.670;7.788;2023-04-01T16:53:36;22.47;;;15.00;;
11008;SDS011;5557;51.670;7.788;2023-04-01T16:56:25;18.20;;;15.93;;
11008;SDS011;5557;51.670;7.788;2023-04-01T17:05:06;20.07;;;15.23;;
11008;SDS011;5557;51.670;7.788;2023-04-01T17:07:53;16.97;;;14.93;;
11008;SDS011;5557;51.670;7.788;2023-04-01T17:13:52;15.10;;;13.60;;
11008;SDS011;5557;51.670;7.788;2023-04-01T17:16:46;16.60;;;13.30;;
11008;SDS011;5557;51.670;7.788;2023-04-01T17:19:41;17.47;;;13.30;;
11008;SDS011;5557;51.670;7.788;2023-04-01T17:25:45;14.53;;;13.03;;
11008;SDS011;5557;51.670;7.788;2023-04-01T17:32:13;15.33;;;12.20;;
11008;SDS011;5557;51.670;7.788;2023-04-01T17:35:08;13.80;;;12.27;;
11008;SDS011;5557;51.670;7.788;2023-04-01T17:49:31;14.70;;;13.10;;
11008;SDS011;5557;51.670;7.788;2023-04-01T17:58:29;14.63;;;13.23;;
11008;SDS011;5557;51.670;7.788;2023-04-01T18:01:30;17.37;;;14.83;;
11008;SDS011;5557;51.670;7.788;2023-04-01T18:04:37;14.10;;;12.80;;
11008;SDS011;5557;51.670;7.788;2023-04-01T18:07:30;15.70;;;13.13;;
11008;SDS011;5557;51.670;7.788;2023-04-01T18:10:16;15.83;;;14.17;;
11008;SDS011;5557;51.670;7.788;2023-04-01T18:13:05;21.43;;;15.13;;
11008;SDS011;5557;51.670;7.788;2023-04-01T18:17:21;16.13;;;14.40;;
11008;SDS011;5557;51.670;7.788;2023-04-01T18:25:05;16.73;;;14.80;;
11008;SDS011;5557;51.670;7.788;2023-04-01T18:28:36;18.63;;;16.63;;
11008;SDS011;5557;51.670;7.788;2023-04-01T18:30:55;17.20;;;15.33;;
11008;SDS011;5557;51.670;7.788;2023-04-01T18:34:18;19.80;;;15.57;;
11008;SDS011;5557;51.670;7.788;2023-04-01T18:36:55;17.13;;;15.30;;
11008;SDS011;5557;51.670;7.788;2023-04-01T18:39:36;20.93;;;14.40;;
11008;SDS011;5557;51.670;7.788;2023-04-01T18:46:33;19.10;;;15.83;;
11008;SDS011;5557;51.670;7.788;2023-04-01T18:52:02;18.60;;;15.63;;
11008;SDS011;5557;51.670;7.788;2023-04-01T18:57:51;17.40;;;14.87;;
11008;SDS011;5557;51.670;7.788;2023-04-01T19:00:21;16.70;;;14.70;;
11008;SDS011;5557;51.670;7.788;2023-04-01T19:02:58;18.37;;;16.20;;
11008;SDS011;5557;51.670;7.788;2023-04-01T19:05:49;17.90;;;15.83;;
11008;SDS011;5557;51.670;7.788;2023-04-01T19:08:30;22.43;;;17.30;;
11008;SDS011;5557;51.670;7.788;2023-04-01T19:11:20;24.77;;;17.83;;
11008;SDS011;5557;51.670;7.788;2023-04-01T19:17:16;23.60;;;19.53;;
11008;SDS011;5557;51.670;7.788;2023-04-01T19:22:32;23.27;;;19.10;;
11008;SDS011;5557;51.670;7.788;2023-04-01T19:25:25;28.00;;;18.80;;
11008;SDS011;5557;51.670;7.788;2023-04-01T19:40:51;29.20;;;20.10;;
11008;SDS011;5557;51.670;7.788;2023-04-01T19:43:47;13.47;;;10.00;;
11008;SDS011;5557;51.670;7.788;2023-04-01T19:46:36;11.97;;;10.77;;
11008;SDS011;5557;51.670;7.788;2023-04-01T19:52:13;3.00;;;2.90;;
11008;SDS011;5557;51.670;7.788;2023-04-01T19:55:45;3.30;;;3.20;;
11008;SDS011;5557;51.670;7.788;2023-04-01T19:58:05;3.93;;;3.73;;
11008;SDS011;5557;51.670;7.788;2023-04-01T20:00:47;2.70;;;2.60;;
11008;SDS011;5557;51.670;7.788;2023-04-01T20:03:26;3.30;;;3.10;;
11008;SDS011;5557;51.670;7.788;2023-04-01T20:10:37;3.50;;;3.40;;
11008;SDS011;5557;51.670;7.788;2023-04-01T20:15:43;4.13;;;3.83;;
11008;SDS011;5557;51.670;7.788;2023-04-01T20:21:20;2.83;;;2.73;;
11008;SDS011;5557;51.670;7.788;2023-04-01T20:23:54;2.63;;;2.53;;
11008;SDS011;5557;51.670;7.788;2023-04-01T20:35:25;3.00;;;2.90;;
11008;SDS011;5557;51.670;7.788;2023-04-01T20:41:49;3.73;;;3.63;;
11008;SDS011;5557;51.670;7.788;2023-04-01T20:45:48;4.93;;;4.73;;
11008;SDS011;5557;51.670;7.788;2023-04-01T20:54:47;3.57;;;3.47;;
11008;SDS011;5557;51.670;7.788;2023-04-01T20:57:11;2.90;;;2.80;;
11008;SDS011;5557;51.670;7.788;2023-04-01T21:06:39;2.70;;;2.60;;
11008;SDS011;5557;51.670;7.788;2023-04-01T21:12:15;3.57;;;3.20;;
11008;SDS011;5557;51.670;7.788;2023-04-01T21:15:03;2.77;;;2.67;;
11008;SDS011;5557;51.670;7.788;2023-04-01T21:21:02;2.67;;;2.57;;
11008;SDS011;5557;51.670;7.788;2023-04-01T21:49:06;3.00;;;2.90;;
11008;SDS011;5557;51.670;7.788;2023-04-01T21:51:43;3.60;;;3.40;;
11008;SDS011;5557;51.670;7.788;2023-04-01T21:58:49;4.80;;;4.60;;
11008;SDS011;5557;51.670;7.788;2023-04-01T22:00:56;4.00;;;3.90;;
11008;SDS011;5557;51.670;7.788;2023-04-01T22:09:56;4.70;;;4.60;;
11008;SDS011;5557;51.670;7.788;2023-04-01T22:12:51;4.17;;;4.07;;
11008;SDS011;5557;51.670;7.788;2023-04-01T22:16:57;3.37;;;3.27;;
11008;SDS011;5557;51.670;7.788;2023-04-01T22:18:50;2.70;;;2.60;;
11008;SDS011;5557;51.670;7.788;2023-04-01T22:21:51;2.57;;;2.47;;
11008;SDS011;5557;51.670;7.788;2023-04-01T22:28:03;3.30;;;3.20;;
11008;SDS011;5557;51.670;7.788;2023-04-01T22:33:28;3.77;;;3.67;;
11008;SDS011;5557;51.670;7.788;2023-04-01T22:36:23;2.50;;;2.40;;
11008;SDS011;5557;51.670;7.788;2023-04-01T22:42:47;3.37;;;3.27;;
11008;SDS011;5557;51.670;7.788;2023-04-01T22:46:16;3.43;;;3.33;;
11008;SDS011;5557;51.670;7.788;2023-04-01T22:49:49;3.10;;;2.90;;
11008;SDS011;5557;51.670;7.788;2023-04-01T22:52:07;4.17;;;4.03;;
11008;SDS011;5557;51.670;7.788;2023-04-01T22:54:58;4.43;;;4.03;;
11008;SDS011;5557;51.670;7.788;2023-04-01T22:58:14;5.07;;;4.73;;
11008;SDS011;5557;51.670;7.788;2023-04-01T23:00:43;4.40;;;3.40;;
11008;SDS011;5557;51.670;7.788;2023-04-01T23:03:16;4.43;;;4.23;;
11008;SDS011;5557;51.670;7.788;2023-04-01T23:05:49;4.17;;;3.93;;
11008;SDS011;5557;51.670;7.788;2023-04-01T23:14:46;4.60;;;4.50;;
11008;SDS011;5557;51.670;7.788;2023-04-01T23:20:54;4.37;;;4.17;;
11008;SDS011;5557;51.670;7.788;2023-04-01T23:23:50;3.30;;;3.20;;
11008;SDS011;5557;51.670;7.788;2023-04-01T23:26:31;4.37;;;3.97;;
11008;SDS011;5557;51.670;7.788;2023-04-01T23:29:15;3.57;;;3.47;;
11008;SDS011;5557;51.670;7.788;2023-04-01T23:31:46;4.10;;;3.97;;
11008;SDS011;5557;51.670;7.788;2023-04-01T23:34:21;4.23;;;4.07;;
11008;SDS011;5557;51.670;7.788;2023-04-01T23:36:53;4.30;;;4.17;;
11008;SDS011;5557;51.670;7.788;2023-04-01T23:39:32;5.17;;;4.73;;
11008;SDS011;5557;51.670;7.788;2023-04-01T23:42:07;4.97;;;4.77;;
11008;SDS011;5557;51.670;7.788;2023-04-01T23:44:41;4.80;;;4.60;;
11008;SDS011;5557;51.670;7.788;2023-04-01T23:47:12;4.37;;;4.27;;
11008;SDS011;5557;51.670;7.788;2023-04-01T23:49:53;4.93;;;4.63;;
11008;SDS011;5557;51.670;7.788;2023-04-01T23:52:24;5.07;;;4.43;;
11008;SDS011;5557;51.670;7.788;2023-04-01T23:54:57;4.77;;;4.67;;
11008;SDS011;5557;51.670;7.788;2023-04-01T23:57:31;4.60;;;4.50;;
